Time;durP1;ratioP1;P1;durP2;ratioP2;P2;SDS_P1;SDS_P2;PMS_P1;PMS_P2;Temp;Humidity;BMP_temperature;BMP_pressure;BME280_temperature;BME280_humidity;BME280_pressure;Samples;Min_cycle;Max_cycle;Signal;HPM_P1;HPM_P2
2024/01/10 00:01:18;;;;;;;8.27;6.97;;;4.90;68.90;;;;;;5034435;28;20076;-76
2024/01/10 00:03:44;;;;;;;8.10;6.80;;;4.90;68.90;;;;;;5012720;28;20037;-76
2024/01/10 00:06:10;;;;;;;7.85;7.05;;;4.90;68.80;;;;;;5012289;28;20048;-76
2024/01/10 00:08:36;;;;;;;7.85;6.75;;;4.90;68.80;;;;;;5019728;28;20057;-76
2024/01/10 00:11:03;;;;;;;9.45;6.80;;;4.90;68.80;;;;;;5029400;28;20535;-76
2024/01/10 00:13:31;;;;;;;9.50;6.70;;;4.90;68.80;;;;;;5014257;28;20041;-76
2024/01/10 00:15:58;;;;;;;8.13;6.88;;;4.90;68.90;;;;;;5014616;28;20555;-76
2024/01/10 00:18:24;;;;;;;9.32;7.95;;;4.90;68.80;;;;;;5029917;28;20111;-76
2024/01/10 00:20:53;;;;;;;11.05;7.57;;;4.90;68.90;;;;;;5010841;28;20489;-76
2024/01/10 00:23:20;;;;;;;8.77;7.35;;;4.90;69.60;;;;;;5026168;28;20049;-76
2024/01/10 00:25:46;;;;;;;8.60;7.18;;;4.90;68.90;;;;;;5027584;28;20037;-76
2024/01/10 00:28:12;;;;;;;8.65;6.38;;;4.90;68.90;;;;;;5017101;28;20500;-76
2024/01/10 00:30:38;;;;;;;9.48;7.30;;;4.90;68.90;;;;;;5028943;28;20041;-76
2024/01/10 00:33:04;;;;;;;9.23;6.82;;;5.00;68.90;;;;;;5028613;28;20056;-76
2024/01/10 00:35:31;;;;;;;8.02;7.05;;;4.90;68.70;;;;;;5030693;28;20280;-77
2024/01/10 00:37:56;;;;;;;8.18;7.30;;;4.90;68.70;;;;;;5019955;28;20044;-77
2024/01/10 00:40:23;;;;;;;8.77;7.10;;;4.90;68.70;;;;;;5031376;28;20036;-76
2024/01/10 00:42:49;;;;;;;8.30;6.50;;;4.90;68.80;;;;;;5031933;28;20033;-77
2024/01/10 00:45:16;;;;;;;9.38;7.20;;;4.90;68.70;;;;;;5038005;28;20066;-77
2024/01/10 00:47:42;;;;;;;8.65;7.22;;;4.90;68.70;;;;;;5035285;28;20435;-77
2024/01/10 00:50:08;;;;;;;7.22;6.18;;;4.90;68.70;;;;;;5033893;28;20095;-77
2024/01/10 00:52:34;;;;;;;8.60;7.15;;;4.90;68.70;;;;;;5030218;28;20524;-76
2024/01/10 00:55:00;;;;;;;8.68;7.25;;;4.90;68.70;;;;;;5049696;28;20047;-76
2024/01/10 00:57:25;;;;;;;7.00;6.18;;;4.90;68.80;;;;;;5032778;28;20486;-76
2024/01/10 00:59:51;;;;;;;8.60;6.10;;;4.90;68.60;;;;;;5031678;28;20053;-77
2024/01/10 01:02:17;;;;;;;8.07;6.90;;;4.90;68.60;;;;;;5031343;28;20038;-77
2024/01/10 01:04:42;;;;;;;7.90;6.70;;;4.90;68.50;;;;;;5032038;28;20029;-77
2024/01/10 01:07:08;;;;;;;9.35;7.40;;;4.90;68.70;;;;;;5038733;28;20064;-76
2024/01/10 01:09:34;;;;;;;10.48;6.97;;;4.90;68.60;;;;;;5032203;28;20037;-76
2024/01/10 01:12:00;;;;;;;7.93;7.13;;;4.90;68.70;;;;;;5032847;28;20038;-77
2024/01/10 01:14:26;;;;;;;9.45;7.97;;;4.90;68.70;;;;;;5032782;28;20036;-77
2024/01/10 01:16:52;;;;;;;8.50;7.60;;;4.90;68.60;;;;;;5034223;28;20475;-77
2024/01/10 01:19:17;;;;;;;9.98;6.60;;;4.90;68.70;;;;;;5034898;28;20041;-77
2024/01/10 01:21:43;;;;;;;9.13;6.35;;;4.90;68.70;;;;;;5015775;28;20041;-76
2024/01/10 01:24:09;;;;;;;9.05;8.00;;;5.00;68.80;;;;;;5014786;28;20029;-76
2024/01/10 01:26:35;;;;;;;8.38;7.35;;;4.90;68.70;;;;;;5032607;28;20118;-76
2024/01/10 01:29:00;;;;;;;8.93;6.82;;;4.90;68.70;;;;;;5063377;28;20072;-77
2024/01/10 01:31:26;;;;;;;8.90;8.00;;;4.90;68.70;;;;;;5032342;28;20052;-77
2024/01/10 01:33:52;;;;;;;9.10;7.07;;;5.00;68.80;;;;;;5031067;28;20124;-77
2024/01/10 01:36:18;;;;;;;8.60;6.85;;;5.00;68.80;;;;;;5014839;28;20090;-77
2024/01/10 01:38:43;;;;;;;8.70;6.90;;;5.00;68.70;;;;;;5018327;28;20223;-76
2024/01/10 01:41:09;;;;;;;9.40;7.18;;;5.00;68.70;;;;;;5035793;28;20029;-76
2024/01/10 01:43:35;;;;;;;9.05;6.70;;;5.00;68.50;;;;;;5023086;28;20068;-76
2024/01/10 01:46:02;;;;;;;7.85;6.40;;;5.00;68.60;;;;;;5030759;28;20110;-76
2024/01/10 01:48:28;;;;;;;8.20;6.22;;;5.00;68.50;;;;;;5016692;28;20501;-77
2024/01/10 01:51:00;;;;;;;9.88;7.55;;;5.00;68.60;;;;;;5032109;28;20405;-77
2024/01/10 01:53:28;;;;;;;10.60;7.35;;;5.00;68.50;;;;;;5030663;28;20484;-77
2024/01/10 01:55:54;;;;;;;7.93;7.00;;;5.00;68.60;;;;;;5034692;28;20041;-77
2024/01/10 01:58:22;;;;;;;7.35;6.65;;;5.00;68.70;;;;;;5029831;28;20411;-77
2024/01/10 02:00:48;;;;;;;7.80;7.00;;;5.00;68.60;;;;;;5015333;28;20037;-76
2024/01/10 02:03:14;;;;;;;8.00;6.80;;;5.00;69.20;;;;;;5035411;28;20770;-77
2024/01/10 02:05:40;;;;;;;8.88;6.47;;;5.00;68.50;;;;;;5035024;28;20036;-77
2024/01/10 02:08:06;;;;;;;7.07;6.38;;;5.00;68.50;;;;;;5015590;28;20508;-77
2024/01/10 02:10:31;;;;;;;8.18;7.10;;;5.00;68.50;;;;;;5015814;28;20038;-77
2024/01/10 02:12:57;;;;;;;9.82;7.18;;;5.00;68.50;;;;;;5014231;28;20044;-77
2024/01/10 02:15:24;;;;;;;10.80;7.80;;;5.00;68.50;;;;;;5015290;28;20033;-77
2024/01/10 02:17:49;;;;;;;8.60;6.78;;;5.00;68.50;;;;;;5032704;28;20041;-77
2024/01/10 02:20:20;;;;;;;9.88;7.40;;;5.00;68.50;;;;;;5032165;28;20102;-77
2024/01/10 02:22:47;;;;;;;8.02;6.88;;;5.00;68.50;;;;;;5030652;28;20072;-77
2024/01/10 02:25:13;;;;;;;9.02;7.18;;;5.00;68.50;;;;;;5034710;28;20045;-76
2024/01/10 02:27:40;;;;;;;8.48;7.18;;;5.00;68.50;;;;;;5016467;28;20400;-77
2024/01/10 02:30:08;;;;;;;9.33;6.07;;;5.00;68.40;;;;;;5038879;28;20052;-77
2024/01/10 02:32:34;;;;;;;8.13;7.03;;;5.00;68.40;;;;;;5029862;28;20060;-77
2024/01/10 02:35:00;;;;;;;9.75;7.28;;;5.00;68.40;;;;;;5031904;28;20064;-76
2024/01/10 02:37:26;;;;;;;9.73;7.80;;;5.00;68.30;;;;;;5014326;28;20041;-76
2024/01/10 02:39:52;;;;;;;8.40;6.72;;;5.00;68.30;;;;;;5032016;28;20033;-77
2024/01/10 02:42:18;;;;;;;8.75;7.22;;;5.00;68.30;;;;;;5030681;28;20115;-77
2024/01/10 02:44:44;;;;;;;9.30;6.82;;;5.00;68.20;;;;;;5029103;28;20040;-77
2024/01/10 02:47:11;;;;;;;8.35;6.75;;;5.00;68.20;;;;;;5032478;28;20037;-77
2024/01/10 02:49:36;;;;;;;9.38;7.47;;;5.00;68.20;;;;;;5035988;28;20037;-77
2024/01/10 02:52:02;;;;;;;9.00;7.32;;;5.00;68.20;;;;;;5031262;28;20530;-76
2024/01/10 02:54:27;;;;;;;11.73;7.47;;;5.00;68.90;;;;;;5012262;28;20091;-77
2024/01/10 02:56:53;;;;;;;9.80;7.10;;;5.00;68.20;;;;;;5030829;28;20065;-77
2024/01/10 02:59:19;;;;;;;9.27;6.47;;;5.00;68.10;;;;;;5047899;28;20120;-77
2024/01/10 03:01:44;;;;;;;11.10;6.70;;;5.00;68.20;;;;;;5035680;28;20037;-77
2024/01/10 03:04:10;;;;;;;8.57;6.60;;;5.00;68.20;;;;;;5032293;28;20485;-77
2024/01/10 03:06:36;;;;;;;8.10;6.97;;;5.00;68.20;;;;;;5009224;28;20045;-77
2024/01/10 03:09:02;;;;;;;8.48;6.85;;;5.00;68.20;;;;;;5029912;28;20041;-76
2024/01/10 03:11:28;;;;;;;7.55;6.65;;;5.00;68.30;;;;;;5031518;28;20048;-77
2024/01/10 03:14:03;;;;;;;11.93;6.97;;;5.00;68.30;;;;;;5029376;28;20049;-77
2024/01/10 03:16:32;;;;;;;8.15;6.72;;;5.00;68.20;;;;;;5033429;28;20043;-77
2024/01/10 03:18:58;;;;;;;8.40;7.38;;;5.00;68.30;;;;;;5030549;28;20408;-77
2024/01/10 03:21:25;;;;;;;9.45;7.82;;;5.00;68.30;;;;;;5031710;28;20132;-77
2024/01/10 03:23:55;;;;;;;10.55;7.32;;;5.00;68.30;;;;;;5032089;28;20076;-77
2024/01/10 03:26:20;;;;;;;10.23;7.07;;;5.00;68.20;;;;;;5027574;28;20037;-77
2024/01/10 03:28:46;;;;;;;10.00;7.30;;;5.00;68.00;;;;;;5011346;28;20041;-77
2024/01/10 03:31:12;;;;;;;9.55;7.70;;;5.00;68.10;;;;;;5030210;28;20049;-77
2024/01/10 03:33:38;;;;;;;8.88;6.90;;;5.00;68.20;;;;;;5017524;28;20078;-77
2024/01/10 03:36:04;;;;;;;9.40;7.63;;;5.00;68.20;;;;;;5030194;28;20060;-77
2024/01/10 03:38:30;;;;;;;10.30;7.90;;;5.00;68.20;;;;;;5011087;28;20202;-76
2024/01/10 03:40:56;;;;;;;8.82;7.18;;;5.00;68.20;;;;;;5035702;28;20509;-77
2024/01/10 03:43:21;;;;;;;9.68;8.00;;;5.00;68.10;;;;;;5030005;28;20033;-77
2024/01/10 03:45:47;;;;;;;8.38;6.90;;;5.00;68.10;;;;;;5031388;28;20038;-76
2024/01/10 03:48:13;;;;;;;9.93;7.65;;;5.00;68.00;;;;;;5027902;28;20037;-77
2024/01/10 03:50:38;;;;;;;8.98;6.75;;;5.00;68.10;;;;;;5031199;28;20045;-77
2024/01/10 03:53:04;;;;;;;10.57;7.30;;;5.00;68.20;;;;;;5011586;28;20064;-77
2024/01/10 03:55:30;;;;;;;8.38;7.50;;;5.00;68.20;;;;;;5012276;28;20046;-77
2024/01/10 03:57:56;;;;;;;8.52;7.03;;;5.00;68.20;;;;;;5030896;28;20131;-77
2024/01/10 04:00:22;;;;;;;8.77;7.72;;;5.00;68.30;;;;;;5030765;28;20069;-77
2024/01/10 04:02:47;;;;;;;9.65;7.57;;;5.00;68.30;;;;;;5029615;28;20073;-77
2024/01/10 04:05:13;;;;;;;11.13;6.82;;;5.00;68.30;;;;;;5027984;28;20033;-77
2024/01/10 04:07:43;;;;;;;9.90;8.35;;;5.00;68.30;;;;;;5035236;28;20041;-77
2024/01/10 04:10:10;;;;;;;10.13;7.65;;;5.00;68.20;;;;;;5028682;28;20041;-77
2024/01/10 04:12:39;;;;;;;8.88;7.45;;;5.00;68.10;;;;;;5032925;28;20056;-77
2024/01/10 04:15:06;;;;;;;10.48;7.75;;;4.90;68.00;;;;;;5033027;28;20084;-77
2024/01/10 04:17:31;;;;;;;11.10;8.25;;;4.90;68.00;;;;;;5034145;28;20144;-77
2024/01/10 04:19:57;;;;;;;8.57;7.55;;;4.90;68.20;;;;;;5034065;28;20116;-77
2024/01/10 04:22:26;;;;;;;11.10;7.95;;;5.00;68.40;;;;;;5033425;28;20057;-77
2024/01/10 04:24:52;;;;;;;10.48;7.68;;;5.00;68.30;;;;;;5032543;28;20156;-77
2024/01/10 04:27:20;;;;;;;9.65;8.07;;;5.00;68.20;;;;;;5033701;28;20124;-76
2024/01/10 04:29:46;;;;;;;9.82;6.95;;;5.00;68.10;;;;;;5032419;28;20033;-77
2024/01/10 04:32:11;;;;;;;7.70;6.85;;;4.90;68.00;;;;;;5036220;28;20147;-77
2024/01/10 04:34:37;;;;;;;10.20;8.27;;;4.90;68.10;;;;;;5022275;28;20050;-77
2024/01/10 04:37:03;;;;;;;9.25;7.35;;;5.00;68.40;;;;;;5032583;28;20049;-77
2024/01/10 04:39:29;;;;;;;9.20;6.97;;;5.00;68.30;;;;;;5036609;28;20459;-77
2024/01/10 04:41:55;;;;;;;8.68;7.40;;;5.00;68.40;;;;;;5031141;28;20099;-77
2024/01/10 04:44:21;;;;;;;10.23;8.23;;;5.00;68.40;;;;;;5019265;28;20045;-77
2024/01/10 04:46:46;;;;;;;9.82;7.90;;;5.00;68.40;;;;;;5036037;28;20112;-77
2024/01/10 04:49:12;;;;;;;10.48;7.93;;;5.00;68.30;;;;;;5034308;28;20041;-77
2024/01/10 04:51:39;;;;;;;11.20;8.20;;;5.00;68.40;;;;;;5031534;28;20042;-77
2024/01/10 04:54:04;;;;;;;10.95;7.82;;;5.00;68.50;;;;;;5035628;28;20073;-77
2024/01/10 04:56:30;;;;;;;10.57;8.13;;;5.00;68.50;;;;;;5033603;28;20083;-77
2024/01/10 04:58:56;;;;;;;8.50;6.78;;;5.00;68.50;;;;;;5016795;28;20077;-77
2024/01/10 05:01:22;;;;;;;8.98;7.88;;;5.00;68.30;;;;;;5020899;28;20042;-77
2024/01/10 05:03:47;;;;;;;9.90;7.82;;;5.00;68.30;;;;;;5016146;28;20043;-77
2024/01/10 05:06:13;;;;;;;9.05;7.93;;;5.00;68.20;;;;;;5033745;28;20033;-77
2024/01/10 05:08:39;;;;;;;10.30;7.97;;;5.00;68.20;;;;;;5031751;28;20045;-77
2024/01/10 05:11:04;;;;;;;10.73;8.48;;;5.00;68.30;;;;;;5033114;28;20060;-77
2024/01/10 05:13:30;;;;;;;10.73;8.80;;;5.00;68.20;;;;;;5032257;28;20041;-77
2024/01/10 05:15:56;;;;;;;9.52;8.15;;;5.00;68.20;;;;;;5016760;28;20053;-77
2024/01/10 05:18:21;;;;;;;11.63;8.15;;;5.00;68.20;;;;;;5034441;28;20501;-77
2024/01/10 05:20:47;;;;;;;9.73;8.35;;;5.00;68.10;;;;;;5032013;28;20040;-77
2024/01/10 05:23:13;;;;;;;9.43;7.82;;;5.00;68.20;;;;;;5015568;28;20041;-76
2024/01/10 05:25:39;;;;;;;11.10;9.23;;;5.00;68.10;;;;;;5030151;28;20041;-77
2024/01/10 05:28:05;;;;;;;10.65;9.23;;;5.00;68.10;;;;;;5018802;28;20044;-77
2024/01/10 05:30:31;;;;;;;11.98;8.85;;;5.00;68.00;;;;;;5019375;28;20075;-77
2024/01/10 05:32:58;;;;;;;12.98;10.07;;;5.00;68.00;;;;;;5032173;28;20056;-76
2024/01/10 05:35:25;;;;;;;12.88;9.90;;;5.00;67.90;;;;;;5015885;28;20041;-76
2024/01/10 05:37:52;;;;;;;9.50;8.50;;;5.00;67.90;;;;;;5031442;28;20099;-77
2024/01/10 05:40:18;;;;;;;11.23;9.07;;;5.00;67.80;;;;;;5032882;28;20879;-77
2024/01/10 05:42:44;;;;;;;12.73;9.75;;;5.00;67.70;;;;;;5031273;28;20075;-76
2024/01/10 05:45:10;;;;;;;12.55;9.02;;;5.00;67.70;;;;;;5018197;28;20064;-77
2024/01/10 05:47:36;;;;;;;12.75;9.98;;;4.90;67.60;;;;;;5032300;28;20065;-77
2024/01/10 05:50:06;;;;;;;10.70;9.65;;;4.90;67.60;;;;;;5032816;28;20037;-77
2024/01/10 05:52:32;;;;;;;11.68;9.13;;;4.90;67.70;;;;;;5030767;28;20064;-77
2024/01/10 05:54:58;;;;;;;13.20;9.55;;;4.90;67.60;;;;;;5034687;28;20378;-76
2024/01/10 05:57:24;;;;;;;11.70;9.13;;;4.90;67.60;;;;;;5031436;28;20120;-76
2024/01/10 05:59:52;;;;;;;11.77;9.73;;;4.90;67.60;;;;;;5021446;28;20121;-76
2024/01/10 06:02:18;;;;;;;14.23;10.80;;;4.90;67.60;;;;;;5017160;28;20045;-77
2024/01/10 06:04:43;;;;;;;13.95;10.35;;;4.90;67.70;;;;;;5045954;28;20484;-77
2024/01/10 06:07:09;;;;;;;13.73;10.23;;;4.90;67.70;;;;;;5034034;28;20489;-77
2024/01/10 06:09:35;;;;;;;10.43;8.57;;;4.90;67.70;;;;;;5016850;28;20037;-77
2024/01/10 06:12:00;;;;;;;13.43;9.77;;;4.90;67.80;;;;;;5030929;28;20034;-77
2024/01/10 06:14:26;;;;;;;12.90;9.93;;;4.90;67.70;;;;;;5039967;28;20108;-77
2024/01/10 06:16:51;;;;;;;13.57;9.93;;;4.90;67.70;;;;;;5033421;28;20412;-77
2024/01/10 06:19:18;;;;;;;11.57;9.77;;;5.00;67.80;;;;;;5031051;28;20401;-77
2024/01/10 06:21:44;;;;;;;12.15;8.98;;;4.90;67.70;;;;;;5031224;28;20061;-77
2024/01/10 06:24:09;;;;;;;12.18;10.35;;;4.90;67.70;;;;;;5013397;28;20060;-77
2024/01/10 06:26:35;;;;;;;12.73;10.25;;;4.90;67.70;;;;;;5032045;28;20045;-77
2024/01/10 06:29:01;;;;;;;11.77;9.82;;;4.90;67.70;;;;;;5014989;28;20042;-77
2024/01/10 06:31:26;;;;;;;12.25;9.75;;;4.90;67.70;;;;;;5031715;28;20051;-77
2024/01/10 06:33:52;;;;;;;11.52;9.35;;;4.90;67.60;;;;;;5030788;28;20432;-77
2024/01/10 06:36:17;;;;;;;13.63;11.15;;;4.90;67.80;;;;;;5031100;28;20045;-77
2024/01/10 06:38:43;;;;;;;12.57;9.48;;;4.90;67.80;;;;;;5022758;28;20037;-77
2024/01/10 06:41:10;;;;;;;13.02;10.70;;;4.90;67.70;;;;;;5038073;28;20061;-77
2024/01/10 06:43:38;;;;;;;11.63;9.25;;;4.90;67.80;;;;;;5032933;28;20053;-77
2024/01/10 06:46:04;;;;;;;12.45;9.27;;;4.90;67.70;;;;;;5040911;28;20040;-77
2024/01/10 06:48:31;;;;;;;14.23;10.00;;;4.90;67.80;;;;;;5029806;28;20416;-77
2024/01/10 06:50:57;;;;;;;13.13;9.55;;;4.90;67.70;;;;;;5023950;28;20049;-77
2024/01/10 06:53:23;;;;;;;12.30;9.52;;;4.90;67.70;;;;;;5030278;28;20045;-77
2024/01/10 06:55:48;;;;;;;10.93;9.10;;;4.90;67.70;;;;;;5021375;28;20048;-77
2024/01/10 06:58:14;;;;;;;11.50;10.32;;;4.90;67.90;;;;;;5046594;28;20049;-76
2024/01/10 07:00:39;;;;;;;12.20;10.38;;;4.90;67.80;;;;;;5013372;28;20055;-77
2024/01/10 07:03:05;;;;;;;11.30;9.07;;;4.90;67.70;;;;;;5025395;28;20037;-76
2024/01/10 07:05:31;;;;;;;13.98;10.52;;;4.90;67.60;;;;;;5030580;28;20045;-76
2024/01/10 07:08:02;;;;;;;14.05;10.45;;;4.90;67.50;;;;;;5045167;28;20060;-76
2024/01/10 07:10:31;;;;;;;12.25;10.02;;;4.90;67.60;;;;;;5014679;28;20095;-76
2024/01/10 07:12:57;;;;;;;12.48;9.25;;;4.90;67.50;;;;;;5032446;28;20038;-76
2024/01/10 07:15:22;;;;;;;13.02;9.32;;;4.90;67.30;;;;;;5034472;28;20083;-76
2024/01/10 07:17:49;;;;;;;14.20;10.23;;;4.90;67.30;;;;;;5034948;28;20083;-76
2024/01/10 07:20:14;;;;;;;12.40;10.02;;;4.90;67.30;;;;;;5037488;28;20042;-76
2024/01/10 07:22:41;;;;;;;12.10;9.65;;;4.90;67.30;;;;;;5019862;28;20120;-76
2024/01/10 07:25:13;;;;;;;12.35;9.85;;;4.90;67.30;;;;;;5014089;28;20542;-76
2024/01/10 07:27:40;;;;;;;12.98;11.23;;;4.90;67.30;;;;;;5038060;28;20056;-76
2024/01/10 07:30:13;;;;;;;11.40;10.20;;;4.90;67.20;;;;;;5034663;28;20107;-76
2024/01/10 07:32:42;;;;;;;13.43;11.23;;;5.00;67.10;;;;;;5028350;28;20521;-76
2024/01/10 07:35:11;;;;;;;12.45;10.30;;;4.90;67.00;;;;;;5035913;28;20075;-76
2024/01/10 07:37:39;;;;;;;15.43;10.60;;;4.90;66.90;;;;;;5038026;28;20037;-76
2024/01/10 07:40:06;;;;;;;14.60;10.73;;;4.90;67.70;;;;;;5008183;28;20386;-76
2024/01/10 07:42:33;;;;;;;16.67;11.00;;;5.00;67.00;;;;;;5020884;28;20300;-76
2024/01/10 07:44:59;;;;;;;19.17;11.85;;;4.90;66.90;;;;;;5035336;28;20485;-76
2024/01/10 07:47:25;;;;;;;13.25;10.55;;;4.90;67.00;;;;;;5029708;28;20374;-75
2024/01/10 07:49:51;;;;;;;12.52;10.55;;;4.90;67.10;;;;;;5028320;28;20228;-75
2024/01/10 07:52:16;;;;;;;13.38;10.20;;;5.00;67.10;;;;;;5027899;28;20037;-75
2024/01/10 07:54:42;;;;;;;13.10;10.82;;;5.00;67.10;;;;;;5012814;28;20075;-75
2024/01/10 07:57:08;;;;;;;11.13;9.88;;;5.00;67.00;;;;;;5029528;28;20393;-75
2024/01/10 07:59:35;;;;;;;13.77;9.55;;;5.00;67.00;;;;;;5028751;28;20053;-75
2024/01/10 08:02:01;;;;;;;13.38;10.90;;;5.00;66.80;;;;;;5034727;28;20115;-75
2024/01/10 08:04:26;;;;;;;10.50;9.45;;;5.00;66.60;;;;;;5030602;28;20037;-75
2024/01/10 08:06:53;;;;;;;12.95;10.35;;;5.00;66.60;;;;;;5028784;28;20056;-75
2024/01/10 08:09:19;;;;;;;11.70;10.48;;;5.00;66.40;;;;;;5022419;28;20038;-74
2024/01/10 08:11:45;;;;;;;13.15;9.93;;;5.00;66.70;;;;;;5022110;28;20091;-76
2024/01/10 08:14:12;;;;;;;12.15;9.93;;;4.90;66.50;;;;;;5021195;28;20677;-76
2024/01/10 08:16:37;;;;;;;12.05;9.38;;;4.90;66.60;;;;;;5029741;28;20038;-76
2024/01/10 08:19:03;;;;;;;12.98;9.88;;;4.90;66.70;;;;;;5030789;28;20290;-75
2024/01/10 08:21:29;;;;;;;11.20;9.13;;;4.90;66.50;;;;;;5029041;28;20050;-77
2024/01/10 08:23:54;;;;;;;11.18;9.38;;;4.90;66.70;;;;;;5015798;28;20044;-76
2024/01/10 08:26:20;;;;;;;15.13;9.85;;;4.90;66.60;;;;;;5028152;28;20409;-76
2024/01/10 08:28:46;;;;;;;10.70;9.20;;;4.90;66.50;;;;;;5027947;28;20038;-77
2024/01/10 08:31:12;;;;;;;12.57;10.43;;;5.00;66.70;;;;;;5029031;28;20107;-77
2024/01/10 08:33:39;;;;;;;9.65;8.60;;;5.00;66.70;;;;;;5029662;28;20049;-76
2024/01/10 08:36:05;;;;;;;10.57;9.48;;;5.00;66.70;;;;;;5028625;28;20048;-77
2024/01/10 08:38:31;;;;;;;15.88;9.80;;;5.00;66.70;;;;;;5031445;28;20129;-77
2024/01/10 08:40:56;;;;;;;12.38;9.90;;;5.00;66.70;;;;;;5012752;28;20123;-77
2024/01/10 08:43:22;;;;;;;12.18;9.50;;;5.00;66.90;;;;;;5029030;28;20042;-76
2024/01/10 08:45:48;;;;;;;10.73;8.25;;;5.10;67.00;;;;;;5019199;28;20044;-76
2024/01/10 08:48:14;;;;;;;11.93;8.65;;;5.10;66.80;;;;;;5024239;28;20049;-76
2024/01/10 08:50:40;;;;;;;10.75;8.23;;;5.10;66.70;;;;;;5009551;28;20051;-76
2024/01/10 08:53:05;;;;;;;10.65;9.52;;;5.10;67.30;;;;;;5034019;28;20124;-76
2024/01/10 08:55:36;;;;;;;9.48;8.45;;;5.10;66.50;;;;;;5033270;28;20424;-76
2024/01/10 08:58:03;;;;;;;10.77;9.07;;;5.10;66.40;;;;;;5068022;28;20390;-75
2024/01/10 09:00:28;;;;;;;9.30;8.10;;;5.10;66.50;;;;;;5063950;28;20120;-75
2024/01/10 09:02:57;;;;;;;11.02;8.05;;;5.10;66.50;;;;;;5025499;28;20159;-76
2024/01/10 09:05:23;;;;;;;9.63;7.90;;;5.10;66.60;;;;;;5037382;28;20044;-76
2024/01/10 09:07:49;;;;;;;11.25;9.82;;;5.10;66.40;;;;;;5035103;28;20395;-76
2024/01/10 09:10:15;;;;;;;11.55;10.25;;;5.10;66.40;;;;;;5034542;28;20101;-76
2024/01/10 09:12:43;;;;;;;10.23;9.20;;;5.10;66.30;;;;;;5035276;28;20041;-76
2024/01/10 09:15:12;;;;;;;10.10;9.07;;;5.00;66.00;;;;;;5042117;28;20045;-76
2024/01/10 09:17:38;;;;;;;9.88;8.80;;;5.00;66.00;;;;;;5040391;28;20037;-75
2024/01/10 09:20:04;;;;;;;14.63;9.75;;;5.00;66.00;;;;;;5073672;28;20125;-76
2024/01/10 09:22:30;;;;;;;10.82;8.57;;;5.00;66.10;;;;;;5033676;28;20064;-76
2024/01/10 09:24:56;;;;;;;10.65;9.30;;;5.00;66.20;;;;;;5036810;28;20072;-76
2024/01/10 09:27:22;;;;;;;10.43;9.13;;;5.00;66.20;;;;;;5037856;28;20045;-76
2024/01/10 09:29:48;;;;;;;12.15;10.13;;;5.10;66.20;;;;;;5017873;28;20389;-76
2024/01/10 09:32:14;;;;;;;9.77;8.57;;;5.00;66.20;;;;;;5036157;28;20037;-76
2024/01/10 09:34:39;;;;;;;12.57;8.75;;;5.00;66.30;;;;;;5035116;28;20041;-75
2024/01/10 09:37:05;;;;;;;11.38;9.63;;;5.10;66.00;;;;;;5042393;28;20044;-76
2024/01/10 09:39:31;;;;;;;10.30;9.23;;;5.10;66.30;;;;;;5016652;28;20068;-76
2024/01/10 09:41:58;;;;;;;11.32;9.25;;;5.10;66.40;;;;;;5020534;28;20037;-77
2024/01/10 09:44:24;;;;;;;10.47;9.27;;;5.10;66.70;;;;;;5034315;28;20048;-76
2024/01/10 09:46:54;;;;;;;12.10;9.02;;;5.20;66.60;;;;;;5019003;28;20295;-75
2024/01/10 09:49:24;;;;;;;14.27;9.77;;;5.10;66.60;;;;;;5015982;28;20041;-76
2024/01/10 09:51:53;;;;;;;11.02;8.68;;;5.10;66.30;;;;;;5035730;28;20523;-75
2024/01/10 09:54:20;;;;;;;12.40;9.48;;;5.10;66.20;;;;;;5040361;28;20036;-76
2024/01/10 09:56:47;;;;;;;13.02;9.68;;;5.10;66.10;;;;;;5024580;28;20373;-75
2024/01/10 09:59:13;;;;;;;10.90;9.55;;;5.10;66.20;;;;;;5019689;28;20051;-76
2024/01/10 10:01:41;;;;;;;10.27;8.52;;;5.10;66.10;;;;;;5038292;28;20056;-76
2024/01/10 10:04:09;;;;;;;10.38;8.57;;;5.10;66.40;;;;;;5037394;28;20044;-76
2024/01/10 10:06:35;;;;;;;10.80;9.15;;;5.10;66.50;;;;;;5022104;28;20041;-74
2024/01/10 10:09:01;;;;;;;10.82;8.40;;;5.10;66.20;;;;;;5069648;28;20044;-76
2024/01/10 10:11:26;;;;;;;12.75;8.63;;;5.10;66.20;;;;;;5034859;28;20382;-77
2024/01/10 10:13:52;;;;;;;11.30;9.30;;;5.10;66.00;;;;;;5017681;28;20064;-76
2024/01/10 10:16:26;;;;;;;11.18;8.77;;;5.00;66.00;;;;;;5020024;28;20041;-76
2024/01/10 10:18:57;;;;;;;12.30;9.30;;;5.10;66.30;;;;;;5068800;28;20037;-75
2024/01/10 10:21:25;;;;;;;12.70;9.32;;;5.10;66.30;;;;;;5022976;28;20093;-75
2024/01/10 10:23:59;;;;;;;13.85;9.85;;;5.10;66.30;;;;;;5019846;28;20064;-75
2024/01/10 10:26:26;;;;;;;12.45;9.70;;;5.10;66.00;;;;;;5034449;28;20037;-74
2024/01/10 10:28:52;;;;;;;14.55;9.32;;;5.10;66.00;;;;;;5035443;28;20167;-75
2024/01/10 10:31:19;;;;;;;12.05;8.80;;;5.10;66.00;;;;;;5040040;28;20120;-75
2024/01/10 10:33:46;;;;;;;12.60;8.77;;;5.10;66.00;;;;;;5032132;28;20042;-76
2024/01/10 10:36:15;;;;;;;12.75;8.77;;;5.10;66.20;;;;;;5035159;28;20049;-76
2024/01/10 10:38:40;;;;;;;14.35;9.38;;;5.10;66.20;;;;;;5037212;28;20127;-77
2024/01/10 10:41:10;;;;;;;9.95;8.38;;;5.10;66.20;;;;;;5036295;28;20237;-74
2024/01/10 10:43:37;;;;;;;12.18;9.77;;;5.10;66.30;;;;;;5034561;28;20099;-77
2024/01/10 10:46:06;;;;;;;14.02;10.73;;;5.10;66.30;;;;;;5035849;28;20045;-76
2024/01/10 10:48:35;;;;;;;12.40;9.30;;;5.10;66.10;;;;;;5029797;28;20032;-76
2024/01/10 10:51:08;;;;;;;10.40;8.02;;;5.10;66.00;;;;;;5032544;28;20126;-76
2024/01/10 10:53:40;;;;;;;12.38;8.98;;;5.10;65.90;;;;;;5038551;28;20049;-75
2024/01/10 10:56:07;;;;;;;11.38;8.40;;;5.20;65.80;;;;;;5039225;28;20040;-76
2024/01/10 10:58:39;;;;;;;10.73;6.70;;;5.10;65.50;;;;;;5039159;28;20425;-75
2024/01/10 11:01:09;;;;;;;10.80;8.40;;;5.10;65.60;;;;;;5029185;28;20559;-75
2024/01/10 11:03:42;;;;;;;11.15;8.75;;;5.10;66.20;;;;;;5065219;28;20044;-75
2024/01/10 11:06:08;;;;;;;9.48;7.40;;;5.10;65.60;;;;;;5035722;28;20029;-75
2024/01/10 11:08:45;;;;;;;10.73;8.00;;;5.10;65.70;;;;;;5065791;28;20136;-75
2024/01/10 11:11:48;;;;;;;10.63;8.43;;;5.10;65.60;;;;;;5035194;28;20041;-75
2024/01/10 11:14:32;;;;;;;9.35;8.32;;;5.10;65.70;;;;;;5049495;28;20037;-75
2024/01/10 11:17:07;;;;;;;12.30;7.97;;;5.10;65.40;;;;;;5036875;28;20091;-75
2024/01/10 11:20:10;;;;;;;10.48;7.85;;;5.10;65.30;;;;;;5066536;28;20550;-75
2024/01/10 11:23:14;;;;;;;14.10;9.23;;;5.00;65.30;;;;;;5067649;28;20048;-75
2024/01/10 11:25:41;;;;;;;12.30;8.07;;;5.00;64.90;;;;;;5036762;28;20046;-75
2024/01/10 11:28:06;;;;;;;11.35;7.93;;;5.10;65.10;;;;;;5041386;28;20044;-75
2024/01/10 11:30:37;;;;;;;11.65;7.97;;;5.00;64.80;;;;;;5025116;28;20417;-75
2024/01/10 11:33:56;;;;;;;11.07;8.00;;;5.00;65.00;;;;;;5012216;28;20647;-75
2024/01/10 11:36:24;;;;;;;10.23;8.82;;;5.00;64.80;;;;;;5047832;28;20145;-75
2024/01/10 11:38:54;;;;;;;10.90;7.55;;;5.00;64.80;;;;;;5029052;28;20041;-75
2024/01/10 11:41:22;;;;;;;9.43;7.20;;;5.00;64.80;;;;;;5041997;28;20029;-75
2024/01/10 11:44:11;;;;;;;9.82;7.03;;;5.10;64.70;;;;;;5061868;28;20041;-75
2024/01/10 11:46:45;;;;;;;11.10;7.53;;;5.00;64.80;;;;;;5028766;28;20404;-75
2024/01/10 11:49:16;;;;;;;9.68;6.95;;;5.00;64.80;;;;;;5018653;28;20043;-74
2024/01/10 11:51:42;;;;;;;9.90;7.18;;;5.00;64.80;;;;;;5031730;28;20049;-75
2024/01/10 11:54:08;;;;;;;10.30;6.63;;;5.00;65.00;;;;;;5035037;28;20033;-76
2024/01/10 11:56:42;;;;;;;8.27;6.35;;;5.00;64.70;;;;;;5066522;28;20152;-76
2024/01/10 11:59:10;;;;;;;10.43;6.93;;;5.00;64.60;;;;;;5036712;28;20132;-76
2024/01/10 12:01:38;;;;;;;10.75;6.70;;;5.00;64.60;;;;;;5035912;28;20378;-76
2024/01/10 12:04:04;;;;;;;10.10;6.45;;;5.00;64.50;;;;;;5024069;28;20081;-76
2024/01/10 12:06:31;;;;;;;10.27;7.50;;;5.00;64.50;;;;;;5035446;28;20033;-76
2024/01/10 12:08:57;;;;;;;11.10;7.00;;;5.00;64.50;;;;;;5035857;28;20037;-76
2024/01/10 12:11:22;;;;;;;10.18;6.95;;;5.00;64.40;;;;;;5062899;28;20048;-76
2024/01/10 12:13:48;;;;;;;9.80;7.68;;;5.00;64.30;;;;;;5063156;28;20068;-76
2024/01/10 12:16:15;;;;;;;11.00;7.45;;;5.00;64.20;;;;;;5009554;28;20030;-76
2024/01/10 12:18:42;;;;;;;10.20;6.50;;;5.00;64.40;;;;;;5030814;28;20052;-76
2024/01/10 12:21:08;;;;;;;9.35;7.32;;;5.00;64.30;;;;;;5017943;28;20052;-76
2024/01/10 12:23:35;;;;;;;10.10;6.95;;;5.10;64.50;;;;;;5034881;28;20531;-77
2024/01/10 12:26:07;;;;;;;10.35;7.07;;;5.10;64.40;;;;;;5034295;28;20061;-77
2024/01/10 12:28:35;;;;;;;8.68;7.03;;;5.10;64.30;;;;;;5038371;28;20044;-77
2024/01/10 12:31:01;;;;;;;9.35;7.38;;;5.00;64.30;;;;;;5033892;28;20072;-77
2024/01/10 12:33:27;;;;;;;9.82;6.45;;;5.10;64.40;;;;;;5037214;28;20095;-77
2024/01/10 12:36:10;;;;;;;9.27;7.15;;;5.10;64.50;;;;;;5037257;28;20041;-76
2024/01/10 12:38:37;;;;;;;11.00;7.75;;;5.10;64.30;;;;;;5034875;28;20503;-76
2024/01/10 12:41:04;;;;;;;9.13;6.93;;;5.10;64.60;;;;;;5033850;28;20079;-76
2024/01/10 12:43:30;;;;;;;11.45;6.95;;;5.10;64.50;;;;;;5021082;28;20469;-76
2024/01/10 12:46:25;;;;;;;10.75;7.03;;;5.10;64.70;;;;;;5072343;28;20043;-76
2024/01/10 12:49:07;;;;;;;7.57;6.05;;;5.10;64.60;;;;;;5022626;28;20063;-76
2024/01/10 12:51:36;;;;;;;7.18;5.95;;;5.20;64.70;;;;;;5033004;28;20037;-77